Time;durP1;ratioP1;P1;durP2;ratioP2;P2;SDS_P1;SDS_P2;PMS_P1;PMS_P2;Temp;Humidity;BMP_temperature;BMP_pressure;BME280_temperature;BME280_humidity;BME280_pressure;Samples;Min_cycle;Max_cycle;Signal;HPM_P1;HPM_P2
2022/03/24 00:00:23;;;;;;;12.70;7.75;;;;;;;;;;5055446;28;20526;-67
2022/03/24 00:02:49;;;;;;;14.50;8.20;;;;;;;;;;5054540;28;20428;-68
2022/03/24 00:05:15;;;;;;;15.23;8.32;;;;;;;;;;5055546;28;20025;-69
2022/03/24 00:07:41;;;;;;;15.25;8.70;;;;;;;;;;5036793;28;20442;-64
2022/03/24 00:10:07;;;;;;;13.75;8.05;;;;;;;;;;5055460;28;20028;-65
2022/03/24 00:12:34;;;;;;;17.17;8.23;;;;;;;;;;5054863;28;20017;-65
2022/03/24 00:15:00;;;;;;;16.88;8.95;;;;;;;;;;5055380;28;20056;-67
2022/03/24 00:17:26;;;;;;;11.35;8.20;;;;;;;;;;5043411;28;20112;-76
2022/03/24 00:19:52;;;;;;;16.42;8.68;;;;;;;;;;5036503;28;20068;-75
2022/03/24 00:22:18;;;;;;;18.30;8.02;;;;;;;;;;5045720;28;20025;-70
2022/03/24 03:02:35;;;;;;;15.50;10.00;;;;;;;;;;5075300;28;20067;-65
2022/03/24 03:05:03;;;;;;;11.70;9.50;;;;;;;;;;5050727;28;20494;-76
2022/03/24 03:07:29;;;;;;;14.07;9.52;;;;;;;;;;5055380;28;20484;-74
2022/03/24 03:09:55;;;;;;;11.95;9.55;;;;;;;;;;5055787;28;20023;-67
2022/03/24 03:12:21;;;;;;;11.95;9.45;;;;;;;;;;5057255;28;20448;-76
2022/03/24 03:14:47;;;;;;;12.98;10.13;;;;;;;;;;5057530;28;20017;-72
2022/03/24 03:17:15;;;;;;;12.18;9.52;;;;;;;;;;5057232;28;20530;-73
2022/03/24 03:19:42;;;;;;;17.33;9.63;;;;;;;;;;5057605;28;20035;-73
2022/03/24 03:22:09;;;;;;;13.18;9.93;;;;;;;;;;5057063;28;20029;-67
2022/03/24 03:24:35;;;;;;;12.75;9.93;;;;;;;;;;5038469;28;20029;-69
2022/03/24 03:27:04;;;;;;;13.05;9.70;;;;;;;;;;5056484;28;20435;-71
2022/03/24 03:29:30;;;;;;;13.27;9.93;;;;;;;;;;5056025;28;20021;-66
2022/03/24 03:31:56;;;;;;;15.40;9.60;;;;;;;;;;5056651;28;20029;-65
2022/03/24 03:34:24;;;;;;;13.27;10.25;;;;;;;;;;5056374;28;20021;-71
2022/03/24 03:36:50;;;;;;;14.90;9.35;;;;;;;;;;5056724;28;20075;-71
2022/03/24 03:39:16;;;;;;;13.95;9.82;;;;;;;;;;5056171;28;20411;-66
2022/03/24 03:41:42;;;;;;;13.60;9.60;;;;;;;;;;5056166;28;20078;-65
2022/03/24 03:44:08;;;;;;;12.23;9.38;;;;;;;;;;5056106;28;20449;-69
2022/03/24 03:46:35;;;;;;;11.98;9.55;;;;;;;;;;5055846;28;20073;-65
2022/03/24 03:49:01;;;;;;;11.93;9.35;;;;;;;;;;5055927;28;20084;-69
2022/03/24 03:51:28;;;;;;;10.65;9.45;;;;;;;;;;5039375;28;20028;-69
2022/03/24 03:53:54;;;;;;;17.35;10.00;;;;;;;;;;5037015;28;20547;-70
2022/03/24 03:56:21;;;;;;;14.25;10.18;;;;;;;;;;5037762;28;20033;-76
2022/03/24 03:58:47;;;;;;;13.05;9.88;;;;;;;;;;5037130;28;20030;-68
2022/03/24 04:01:13;;;;;;;11.65;9.05;;;;;;;;;;5036638;28;20032;-68
2022/03/24 04:03:40;;;;;;;14.15;9.70;;;;;;;;;;5045486;28;20068;-66
2022/03/24 04:06:08;;;;;;;11.65;8.80;;;;;;;;;;5055888;28;20051;-63
2022/03/24 04:08:35;;;;;;;11.27;9.32;;;;;;;;;;5070064;28;20039;-73
2022/03/24 04:11:01;;;;;;;13.75;9.40;;;;;;;;;;5075502;28;20020;-66
2022/03/24 04:13:27;;;;;;;12.32;9.57;;;;;;;;;;5095387;28;20085;-68
2022/03/24 04:15:54;;;;;;;14.50;9.77;;;;;;;;;;5078012;28;20016;-67
2022/03/24 04:18:22;;;;;;;12.50;9.63;;;;;;;;;;5095968;28;20051;-68
2022/03/24 04:20:48;;;;;;;12.13;9.65;;;;;;;;;;5094991;28;20024;-75
2022/03/24 04:23:14;;;;;;;12.55;9.65;;;;;;;;;;5090226;28;20107;-64
2022/03/24 04:25:45;;;;;;;12.80;9.25;;;;;;;;;;5073350;28;20494;-74
2022/03/24 04:28:11;;;;;;;12.70;8.82;;;;;;;;;;5075216;28;20506;-66
2022/03/24 04:30:37;;;;;;;12.52;9.98;;;;;;;;;;5074864;28;20029;-65
2022/03/24 04:33:04;;;;;;;12.60;9.30;;;;;;;;;;5074960;28;20459;-64
2022/03/24 04:35:31;;;;;;;12.95;10.30;;;;;;;;;;5074816;28;20422;-65
2022/03/24 04:37:57;;;;;;;11.90;9.07;;;;;;;;;;5074937;28;20056;-66
2022/03/24 04:40:24;;;;;;;14.05;9.75;;;;;;;;;;5057146;28;20016;-67
2022/03/24 04:42:51;;;;;;;11.93;9.07;;;;;;;;;;5075230;28;20017;-68
2022/03/24 04:45:18;;;;;;;15.65;10.05;;;;;;;;;;5075009;28;20016;-67
2022/03/24 04:47:45;;;;;;;10.65;9.55;;;;;;;;;;5056890;28;20036;-66
2022/03/24 04:50:11;;;;;;;13.10;9.73;;;;;;;;;;5074757;28;20031;-64
2022/03/24 04:52:37;;;;;;;13.80;10.70;;;;;;;;;;5075156;28;20032;-69
2022/03/24 04:55:03;;;;;;;16.05;9.38;;;;;;;;;;5056862;28;20024;-75
2022/03/24 04:57:29;;;;;;;11.35;9.98;;;;;;;;;;5074754;28;20455;-68
2022/03/24 04:59:59;;;;;;;14.10;9.93;;;;;;;;;;5074280;28;20456;-63
2022/03/24 05:02:26;;;;;;;11.80;9.40;;;;;;;;;;5073819;28;20023;-65
2022/03/24 05:04:53;;;;;;;13.38;9.10;;;;;;;;;;5074088;28;20036;-72
2022/03/24 05:07:19;;;;;;;15.00;9.93;;;;;;;;;;5074792;28;20036;-70
2022/03/24 05:09:45;;;;;;;16.70;9.85;;;;;;;;;;5054302;28;20065;-64
2022/03/24 05:12:11;;;;;;;12.23;9.50;;;;;;;;;;5054095;28;20284;-73
2022/03/24 05:14:38;;;;;;;14.70;10.60;;;;;;;;;;5054890;28;20084;-72
2022/03/24 05:17:06;;;;;;;15.60;10.40;;;;;;;;;;5036524;28;20049;-66
2022/03/24 05:19:32;;;;;;;15.00;10.02;;;;;;;;;;5054225;28;20021;-66
2022/03/24 05:22:00;;;;;;;11.70;9.77;;;;;;;;;;5054396;28;20093;-67
2022/03/24 05:24:26;;;;;;;15.48;10.43;;;;;;;;;;5054216;28;20122;-67
2022/03/24 05:26:52;;;;;;;11.88;9.57;;;;;;;;;;5053710;28;20037;-67
2022/03/24 05:29:18;;;;;;;14.02;9.93;;;;;;;;;;5053903;28;20024;-65
2022/03/24 05:31:44;;;;;;;14.60;10.75;;;;;;;;;;5053266;28;20112;-69
2022/03/24 05:34:10;;;;;;;12.63;9.90;;;;;;;;;;5053696;28;20028;-70
2022/03/24 05:36:36;;;;;;;12.82;10.25;;;;;;;;;;5054487;28;20029;-81
2022/03/24 05:39:03;;;;;;;14.95;9.73;;;;;;;;;;5054787;28;20053;-74
2022/03/24 05:41:30;;;;;;;18.00;10.25;;;;;;;;;;5054820;28;20047;-67
2022/03/24 05:44:06;;;;;;;12.57;9.80;;;;;;;;;;5053883;28;20017;-68
2022/03/24 05:46:31;;;;;;;16.10;10.02;;;;;;;;;;5054655;28;20510;-69
2022/03/24 05:48:58;;;;;;;17.08;11.07;;;;;;;;;;5054679;28;20029;-76
2022/03/24 05:51:24;;;;;;;14.23;10.27;;;;;;;;;;5051827;28;20021;-64
2022/03/24 05:53:50;;;;;;;13.27;9.80;;;;;;;;;;5063654;28;20032;-68
2022/03/24 05:56:16;;;;;;;14.35;10.27;;;;;;;;;;5059976;28;20135;-66
2022/03/24 05:58:43;;;;;;;14.57;10.30;;;;;;;;;;5052221;28;20100;-63
2022/03/24 06:01:09;;;;;;;14.10;9.85;;;;;;;;;;5051608;28;20025;-65
2022/03/24 06:03:36;;;;;;;14.15;10.32;;;;;;;;;;5061403;28;20070;-65
2022/03/24 06:06:02;;;;;;;13.30;9.80;;;;;;;;;;5071805;28;20033;-63
2022/03/24 06:08:28;;;;;;;15.80;10.88;;;;;;;;;;5071989;28;20032;-68
2022/03/24 06:10:54;;;;;;;12.93;10.13;;;;;;;;;;5071761;28;20021;-66
2022/03/24 06:13:20;;;;;;;12.93;10.30;;;;;;;;;;5071612;28;20025;-64
2022/03/24 06:15:50;;;;;;;13.98;10.30;;;;;;;;;;5074265;28;20086;-65
2022/03/24 06:18:16;;;;;;;15.02;10.10;;;;;;;;;;5072567;28;20024;-69
2022/03/24 06:20:43;;;;;;;14.25;10.23;;;;;;;;;;5072885;28;20029;-66
2022/03/24 06:23:09;;;;;;;23.70;10.40;;;;;;;;;;5073023;28;20086;-66
2022/03/24 06:25:37;;;;;;;16.75;10.85;;;;;;;;;;5052347;28;20032;-70
2022/03/24 06:28:04;;;;;;;12.95;9.85;;;;;;;;;;5073998;28;20060;-78
2022/03/24 06:30:30;;;;;;;14.75;9.95;;;;;;;;;;5072538;28;20115;-81
2022/03/24 06:32:57;;;;;;;12.95;10.70;;;;;;;;;;5052620;28;20013;-76
2022/03/24 06:35:23;;;;;;;12.52;9.32;;;;;;;;;;5075131;28;20074;-80
2022/03/24 06:37:51;;;;;;;16.33;9.65;;;;;;;;;;5071517;28;20468;-64
2022/03/24 06:40:17;;;;;;;27.67;10.60;;;;;;;;;;5042775;28;20043;-75
2022/03/24 06:42:44;;;;;;;18.90;10.48;;;;;;;;;;5043048;28;20049;-63
2022/03/24 06:45:11;;;;;;;17.38;11.23;;;;;;;;;;5058460;28;20448;-65
2022/03/24 06:47:38;;;;;;;15.10;11.05;;;;;;;;;;5078239;28;20043;-62
2022/03/24 06:50:05;;;;;;;20.38;11.98;;;;;;;;;;5086268;28;20078;-63
2022/03/24 06:52:31;;;;;;;19.48;11.25;;;;;;;;;;5075084;28;20042;-62
2022/03/24 06:54:57;;;;;;;18.55;11.48;;;;;;;;;;5080236;28;20509;-65
2022/03/24 06:57:23;;;;;;;26.40;11.25;;;;;;;;;;5074137;28;20036;-62
2022/03/24 06:59:49;;;;;;;21.67;11.07;;;;;;;;;;5074277;28;20032;-64
2022/03/24 07:02:15;;;;;;;18.38;11.32;;;;;;;;;;5080498;28;20016;-69
2022/03/24 07:04:41;;;;;;;17.70;11.38;;;;;;;;;;5084908;28;20047;-63
2022/03/24 07:07:08;;;;;;;18.23;11.70;;;;;;;;;;5075450;28;20039;-73
2022/03/24 07:09:35;;;;;;;15.88;10.95;;;;;;;;;;5074207;28;20486;-71
2022/03/24 07:12:02;;;;;;;19.52;11.50;;;;;;;;;;5056259;28;20368;-69
2022/03/24 07:14:28;;;;;;;16.05;11.13;;;;;;;;;;5074394;28;20096;-62
2022/03/24 07:16:54;;;;;;;17.77;11.27;;;;;;;;;;5075952;28;20021;-71
2022/03/24 07:19:20;;;;;;;16.95;10.73;;;;;;;;;;5063012;28;20507;-65
2022/03/24 07:21:46;;;;;;;19.52;11.05;;;;;;;;;;5074656;28;20354;-67
2022/03/24 07:24:12;;;;;;;24.05;11.25;;;;;;;;;;5073942;28;20024;-71
2022/03/24 07:26:38;;;;;;;19.25;11.00;;;;;;;;;;5076224;28;20164;-71
2022/03/24 07:29:04;;;;;;;21.40;10.82;;;;;;;;;;5076115;28;20036;-66
2022/03/24 07:31:31;;;;;;;19.05;10.65;;;;;;;;;;5073294;28;20059;-63
2022/03/24 07:33:57;;;;;;;18.20;11.20;;;;;;;;;;5073752;28;20036;-77
2022/03/24 07:36:24;;;;;;;20.50;10.98;;;;;;;;;;5074556;28;20499;-70
2022/03/24 07:38:50;;;;;;;16.25;11.75;;;;;;;;;;5075576;28;20531;-73
2022/03/24 07:41:17;;;;;;;20.58;11.52;;;;;;;;;;5069605;28;20025;-68
2022/03/24 07:43:43;;;;;;;16.38;11.00;;;;;;;;;;5073297;28;20082;-67
2022/03/24 07:46:09;;;;;;;14.93;11.32;;;;;;;;;;5072725;28;20052;-67
2022/03/24 07:48:35;;;;;;;18.38;11.15;;;;;;;;;;5073266;28;20041;-68
2022/03/24 07:51:01;;;;;;;20.50;11.63;;;;;;;;;;5072833;28;20052;-64
2022/03/24 07:53:30;;;;;;;19.35;11.27;;;;;;;;;;5074024;28;20059;-70
2022/03/24 07:55:57;;;;;;;15.60;10.55;;;;;;;;;;5072114;28;20017;-66
2022/03/24 07:58:23;;;;;;;16.73;11.30;;;;;;;;;;5056040;28;20535;-72
2022/03/24 08:00:50;;;;;;;14.80;11.15;;;;;;;;;;5073816;28;20021;-70
2022/03/24 08:03:17;;;;;;;18.98;9.95;;;;;;;;;;5057036;28;20051;-71
2022/03/24 08:05:44;;;;;;;18.40;11.18;;;;;;;;;;5054678;28;20048;-70
2022/03/24 08:08:10;;;;;;;23.60;10.98;;;;;;;;;;5054589;28;20414;-70
2022/03/24 08:10:46;;;;;;;22.90;11.60;;;;;;;;;;5058609;28;20025;-70
2022/03/24 08:13:15;;;;;;;26.73;12.00;;;;;;;;;;5055231;28;20439;-70
2022/03/24 08:15:42;;;;;;;28.58;13.15;;;;;;;;;;5072619;28;20619;-70
2022/03/24 08:18:09;;;;;;;24.92;12.45;;;;;;;;;;5073388;28;20036;-74
2022/03/24 08:20:38;;;;;;;25.48;12.82;;;;;;;;;;5072708;28;20116;-72
2022/03/24 08:23:05;;;;;;;34.65;12.75;;;;;;;;;;5072902;28;20020;-70
2022/03/24 08:25:32;;;;;;;24.83;13.35;;;;;;;;;;5073447;28;20397;-69
2022/03/24 08:27:58;;;;;;;31.90;13.27;;;;;;;;;;5073489;28;20037;-69
2022/03/24 08:30:25;;;;;;;33.60;13.23;;;;;;;;;;5075621;28;20108;-69
2022/03/24 08:32:51;;;;;;;34.60;14.65;;;;;;;;;;5072200;28;20078;-69
2022/03/24 08:35:17;;;;;;;32.10;15.40;;;;;;;;;;5073595;28;20024;-74
2022/03/24 08:37:44;;;;;;;30.20;14.88;;;;;;;;;;5069557;28;20043;-68
2022/03/24 08:40:10;;;;;;;28.92;14.80;;;;;;;;;;5072521;28;20032;-70
2022/03/24 08:42:37;;;;;;;28.17;14.82;;;;;;;;;;5072822;28;20024;-69
2022/03/24 08:45:04;;;;;;;33.63;14.95;;;;;;;;;;5072946;28;20075;-70
2022/03/24 08:47:30;;;;;;;31.80;14.82;;;;;;;;;;5072635;28;20033;-69
2022/03/24 08:49:56;;;;;;;32.10;15.55;;;;;;;;;;5071790;28;20035;-70
2022/03/24 08:52:22;;;;;;;26.77;15.93;;;;;;;;;;5072812;28;20450;-69
2022/03/24 08:54:49;;;;;;;32.90;15.63;;;;;;;;;;5072642;28;20028;-74
2022/03/24 08:57:15;;;;;;;29.67;15.65;;;;;;;;;;5072656;28;20031;-72
2022/03/24 08:59:41;;;;;;;32.63;15.20;;;;;;;;;;5072473;28;20055;-70
2022/03/24 09:02:08;;;;;;;30.30;14.98;;;;;;;;;;5072434;28;20028;-70
2022/03/24 09:04:34;;;;;;;25.95;14.63;;;;;;;;;;5072291;28;20810;-73
2022/03/24 09:07:02;;;;;;;26.00;15.40;;;;;;;;;;5052671;28;20080;-69
2022/03/24 09:09:28;;;;;;;34.53;15.60;;;;;;;;;;5072174;28;20085;-68
2022/03/24 09:11:53;;;;;;;28.58;15.70;;;;;;;;;;5075986;28;20044;-69
2022/03/24 09:14:19;;;;;;;25.58;15.95;;;;;;;;;;5076388;28;20132;-69
2022/03/24 09:16:45;;;;;;;25.45;15.95;;;;;;;;;;5072287;28;20052;-68
2022/03/24 09:19:12;;;;;;;30.70;15.65;;;;;;;;;;5073292;28;20029;-72
2022/03/24 09:21:38;;;;;;;23.05;15.40;;;;;;;;;;5072016;28;20028;-71
2022/03/24 09:24:04;;;;;;;28.17;15.55;;;;;;;;;;5071994;28;20087;-68
2022/03/24 09:26:30;;;;;;;31.73;15.95;;;;;;;;;;5071984;28;20511;-69
2022/03/24 09:28:57;;;;;;;26.08;15.50;;;;;;;;;;5072027;28;20067;-68
2022/03/24 09:31:23;;;;;;;31.00;16.10;;;;;;;;;;5071659;28;20094;-70
2022/03/24 09:33:49;;;;;;;33.17;15.75;;;;;;;;;;5071829;28;20140;-72
2022/03/24 09:36:15;;;;;;;26.27;16.58;;;;;;;;;;5072314;28;20024;-67
2022/03/24 09:38:41;;;;;;;30.70;16.73;;;;;;;;;;5072105;28;20260;-68
2022/03/24 09:41:07;;;;;;;30.48;17.20;;;;;;;;;;5072007;28;20123;-69
2022/03/24 09:43:37;;;;;;;28.98;16.48;;;;;;;;;;5071549;28;20093;-70
2022/03/24 09:46:03;;;;;;;33.33;16.85;;;;;;;;;;5071694;28;20031;-69
2022/03/24 09:48:29;;;;;;;28.92;16.17;;;;;;;;;;5071642;28;20365;-70
2022/03/24 09:50:55;;;;;;;27.30;16.90;;;;;;;;;;5065035;28;20103;-71
2022/03/24 09:53:23;;;;;;;28.88;17.92;;;;;;;;;;5053636;28;20123;-71
2022/03/24 09:55:49;;;;;;;28.33;17.38;;;;;;;;;;5071452;28;20020;-70
2022/03/24 09:58:15;;;;;;;25.02;16.48;;;;;;;;;;5071619;28;20128;-69
2022/03/24 10:00:42;;;;;;;30.67;16.45;;;;;;;;;;5071531;28;20020;-68
2022/03/24 10:03:08;;;;;;;35.25;17.30;;;;;;;;;;5070861;28;20502;-69
2022/03/24 10:05:34;;;;;;;36.13;16.70;;;;;;;;;;5071700;28;20020;-68
2022/03/24 10:08:04;;;;;;;25.48;15.88;;;;;;;;;;5070978;28;20087;-69
2022/03/24 10:10:34;;;;;;;25.13;16.25;;;;;;;;;;5068649;28;20032;-70
2022/03/24 10:13:00;;;;;;;22.65;15.70;;;;;;;;;;5074316;28;20044;-69
2022/03/24 10:15:26;;;;;;;22.13;14.70;;;;;;;;;;5065581;28;20059;-69
2022/03/24 10:17:53;;;;;;;15.93;12.63;;;;;;;;;;5059707;28;20028;-72
2022/03/24 10:20:19;;;;;;;24.85;16.65;;;;;;;;;;5046684;28;20035;-72
2022/03/24 10:22:55;;;;;;;23.23;15.88;;;;;;;;;;5070376;28;20033;-73
2022/03/24 10:25:22;;;;;;;27.63;16.50;;;;;;;;;;5069373;28;20036;-71
2022/03/24 10:27:51;;;;;;;24.00;16.50;;;;;;;;;;5069871;28;20132;-70
2022/03/24 10:30:17;;;;;;;27.00;15.88;;;;;;;;;;5071706;28;20731;-73
2022/03/24 10:32:54;;;;;;;31.15;16.80;;;;;;;;;;5070860;28;20048;-71
2022/03/24 10:35:20;;;;;;;29.73;16.67;;;;;;;;;;5071650;28;20021;-68
2022/03/24 10:37:50;;;;;;;23.98;15.18;;;;;;;;;;5070803;28;20062;-71
2022/03/24 10:40:17;;;;;;;26.40;16.70;;;;;;;;;;5070457;28;20067;-70
2022/03/24 10:42:43;;;;;;;30.10;15.90;;;;;;;;;;5070746;28;20146;-70
2022/03/24 10:45:20;;;;;;;27.38;16.00;;;;;;;;;;5070582;28;20119;-70
2022/03/24 10:47:48;;;;;;;27.40;15.63;;;;;;;;;;5071121;28;20025;-70
2022/03/24 10:50:28;;;;;;;21.25;14.65;;;;;;;;;;5070908;28;20032;-70
2022/03/24 10:52:54;;;;;;;34.88;16.85;;;;;;;;;;5065161;28;20471;-70
2022/03/24 10:55:39;;;;;;;28.20;16.13;;;;;;;;;;5070168;28;20026;-70
2022/03/24 10:58:07;;;;;;;27.23;16.50;;;;;;;;;;5070716;28;20020;-70
2022/03/24 11:00:33;;;;;;;24.40;15.63;;;;;;;;;;5069901;28;20060;-69
2022/03/24 11:03:00;;;;;;;27.85;16.25;;;;;;;;;;5069600;28;20118;-70
2022/03/24 11:05:26;;;;;;;26.40;16.50;;;;;;;;;;5069274;28;20039;-69
2022/03/24 11:07:52;;;;;;;23.30;15.18;;;;;;;;;;5069532;28;20040;-68
2022/03/24 11:10:19;;;;;;;30.70;15.73;;;;;;;;;;5070655;28;20047;-71
2022/03/24 11:12:45;;;;;;;24.55;16.05;;;;;;;;;;5069438;28;20028;-68
2022/03/24 11:15:12;;;;;;;40.15;17.38;;;;;;;;;;5071670;28;20811;-76
2022/03/24 11:17:38;;;;;;;34.70;17.63;;;;;;;;;;5053440;28;20031;-82
2022/03/24 11:20:07;;;;;;;70.72;17.98;;;;;;;;;;5052632;28;20036;-73
2022/03/24 11:22:51;;;;;;;50.42;18.13;;;;;;;;;;5069813;28;20048;-73
2022/03/24 11:25:18;;;;;;;40.65;17.40;;;;;;;;;;5071256;28;20083;-73
2022/03/24 11:27:44;;;;;;;35.30;16.48;;;;;;;;;;5069734;28;20040;-73
2022/03/24 11:30:11;;;;;;;41.08;17.00;;;;;;;;;;5071722;28;20012;-75
2022/03/24 11:32:39;;;;;;;35.55;16.77;;;;;;;;;;5073626;28;20108;-74
2022/03/24 11:35:05;;;;;;;36.53;15.85;;;;;;;;;;5056230;28;20032;-71
2022/03/24 11:37:31;;;;;;;24.83;16.23;;;;;;;;;;5055891;28;20101;-73
2022/03/24 11:40:11;;;;;;;33.33;16.98;;;;;;;;;;5056301;28;20086;-71
2022/03/24 11:43:06;;;;;;;29.98;16.00;;;;;;;;;;5074417;28;20043;-74
2022/03/24 11:45:54;;;;;;;24.88;15.27;;;;;;;;;;5042858;28;20036;-70
2022/03/24 11:48:31;;;;;;;25.67;15.48;;;;;;;;;;5053483;28;20435;-69
2022/03/24 11:50:57;;;;;;;25.50;14.73;;;;;;;;;;5054496;28;20028;-74
2022/03/24 11:53:30;;;;;;;30.83;14.32;;;;;;;;;;5055288;28;20105;-72
2022/03/24 11:56:02;;;;;;;22.30;14.10;;;;;;;;;;5074466;28;20486;-72
2022/03/24 11:59:07;;;;;;;22.23;13.57;;;;;;;;;;5052283;28;20435;-72
2022/03/24 12:01:35;;;;;;;25.92;13.50;;;;;;;;;;5008636;28;20046;-73
2022/03/24 12:04:03;;;;;;;22.50;13.32;;;;;;;;;;5010100;28;20566;-72
2022/03/24 12:06:45;;;;;;;28.58;13.23;;;;;;;;;;5040829;28;20496;-72
2022/03/24 12:09:12;;;;;;;28.50;12.32;;;;;;;;;;5072418;28;20356;-73
2022/03/24 12:11:41;;;;;;;21.40;12.20;;;;;;;;;;5072504;28;20044;-70
2022/03/24 12:14:09;;;;;;;18.67;12.18;;;;;;;;;;5074026;28;20033;-72
2022/03/24 12:16:38;;;;;;;20.60;10.80;;;;;;;;;;5073679;28;20044;-72
2022/03/24 12:19:04;;;;;;;15.95;11.18;;;;;;;;;;5073773;28;20096;-72
2022/03/24 12:21:31;;;;;;;18.20;10.98;;;;;;;;;;5073108;28;20099;-73
2022/03/24 12:24:06;;;;;;;15.40;10.77;;;;;;;;;;5055140;28;20013;-72
2022/03/24 12:26:37;;;;;;;22.45;10.55;;;;;;;;;;5072749;28;20127;-73
2022/03/24 12:29:12;;;;;;;15.32;10.45;;;;;;;;;;5073619;28;20569;-74
2022/03/24 12:31:57;;;;;;;15.60;10.57;;;;;;;;;;5072596;28;20048;-73
2022/03/24 12:34:27;;;;;;;19.52;10.55;;;;;;;;;;5074305;28;20020;-72
2022/03/24 12:36:53;;;;;;;15.68;9.93;;;;;;;;;;5073669;28;20024;-71
2022/03/24 12:39:33;;;;;;;14.10;10.20;;;;;;;;;;5072749;28;20047;-72
2022/03/24 12:42:04;;;;;;;14.88;10.13;;;;;;;;;;5055988;28;20032;-73
2022/03/24 12:44:49;;;;;;;15.68;10.88;;;;;;;;;;5072929;28;20094;-74
2022/03/24 12:47:34;;;;;;;21.13;10.90;;;;;;;;;;5057106;28;20042;-73
2022/03/24 12:50:07;;;;;;;20.80;11.20;;;;;;;;;;5073404;28;20474;-72
2022/03/24 12:52:49;;;;;;;16.92;10.57;;;;;;;;;;5075011;28;20116;-72
2022/03/24 12:55:21;;;;;;;16.10;9.50;;;;;;;;;;5073646;28;20020;-72
2022/03/24 12:57:58;;;;;;;18.73;9.63;;;;;;;;;;5073840;28;20032;-72
2022/03/24 13:00:26;;;;;;;20.73;11.88;;;;;;;;;;5072224;28;20040;-72
2022/03/24 13:02:52;;;;;;;13.93;9.95;;;;;;;;;;5073018;28;20045;-72
2022/03/24 13:05:25;;;;;;;20.23;11.27;;;;;;;;;;5074110;28;20575;-73
2022/03/24 13:07:52;;;;;;;18.33;10.13;;;;;;;;;;5055293;28;20111;-73
2022/03/24 13:10:19;;;;;;;13.85;9.23;;;;;;;;;;5075173;28;20029;-72
2022/03/24 13:12:46;;;;;;;12.60;8.35;;;;;;;;;;5077595;28;20025;-73
2022/03/24 13:15:29;;;;;;;13.63;9.88;;;;;;;;;;5056248;28;20027;-74
2022/03/24 13:17:58;;;;;;;12.90;8.73;;;;;;;;;;5070949;28;20020;-74
2022/03/24 13:20:25;;;;;;;21.50;10.07;;;;;;;;;;5072802;28;20024;-74
2022/03/24 13:22:51;;;;;;;20.52;10.32;;;;;;;;;;5072716;28;20529;-71
2022/03/24 13:25:20;;;;;;;16.67;10.70;;;;;;;;;;5055074;28;20024;-72
2022/03/24 13:27:49;;;;;;;15.93;10.73;;;;;;;;;;5072986;28;20028;-72
2022/03/24 13:30:16;;;;;;;17.85;10.65;;;;;;;;;;5072842;28;20048;-72
2022/03/24 13:32:43;;;;;;;20.55;10.57;;;;;;;;;;5072633;28;20062;-72
2022/03/24 13:35:10;;;;;;;15.75;10.32;;;;;;;;;;5072672;28;20433;-73
2022/03/24 13:37:37;;;;;;;17.65;10.73;;;;;;;;;;5072742;28;20074;-73
2022/03/24 13:40:05;;;;;;;20.02;10.95;;;;;;;;;;5072869;28;20544;-72
2022/03/24 13:42:31;;;;;;;16.65;10.57;;;;;;;;;;5055188;28;20760;-72
2022/03/24 13:44:57;;;;;;;19.77;12.48;;;;;;;;;;5075156;28;20593;-72
2022/03/24 13:47:25;;;;;;;22.40;12.77;;;;;;;;;;5073128;28;20040;-72
2022/03/24 13:49:57;;;;;;;17.48;11.65;;;;;;;;;;5072410;28;20360;-72
2022/03/24 13:52:52;;;;;;;15.77;11.25;;;;;;;;;;5073423;28;20071;-72
2022/03/24 13:55:18;;;;;;;17.20;10.50;;;;;;;;;;5070297;28;20048;-74
2022/03/24 13:57:45;;;;;;;21.10;11.25;;;;;;;;;;5072162;28;20025;-71
2022/03/24 14:00:12;;;;;;;26.45;11.30;;;;;;;;;;5072336;28;20036;-72
2022/03/24 14:02:38;;;;;;;21.10;13.32;;;;;;;;;;5071660;28;20360;-73
2022/03/24 14:05:05;;;;;;;22.23;13.95;;;;;;;;;;5074262;28;20047;-72
2022/03/24 14:07:32;;;;;;;28.60;14.55;;;;;;;;;;5072502;28;20032;-72
2022/03/24 14:09:59;;;;;;;21.17;14.00;;;;;;;;;;5076291;28;20028;-73
2022/03/24 14:12:27;;;;;;;26.45;14.30;;;;;;;;;;5071652;28;20657;-72
2022/03/24 14:14:53;;;;;;;21.67;13.65;;;;;;;;;;5074103;28;20032;-73
2022/03/24 14:17:25;;;;;;;19.40;13.60;;;;;;;;;;5054599;28;20032;-71
2022/03/24 14:19:55;;;;;;;19.33;12.80;;;;;;;;;;5072291;28;20112;-72
2022/03/24 14:22:24;;;;;;;16.13;12.98;;;;;;;;;;5072080;28;20375;-72
2022/03/24 14:24:50;;;;;;;22.20;13.32;;;;;;;;;;5071988;28;20021;-73
2022/03/24 14:27:20;;;;;;;17.63;12.35;;;;;;;;;;5066570;28;20028;-72
2022/03/24 14:30:07;;;;;;;19.45;12.45;;;;;;;;;;5071642;28;20431;-71
2022/03/24 14:32:34;;;;;;;21.38;12.60;;;;;;;;;;5055634;28;20028;-72
2022/03/24 14:35:12;;;;;;;18.48;11.57;;;;;;;;;;5072221;28;20029;-72
2022/03/24 14:37:40;;;;;;;14.55;11.13;;;;;;;;;;5071830;28;20025;-72
2022/03/24 14:40:06;;;;;;;16.17;10.93;;;;;;;;;;5072465;28;20035;-72
2022/03/24 14:42:34;;;;;;;18.30;11.85;;;;;;;;;;5067313;28;20027;-72
2022/03/24 14:45:00;;;;;;;19.45;12.55;;;;;;;;;;5071992;28;20024;-74
2022/03/24 14:47:26;;;;;;;21.88;12.77;;;;;;;;;;5072060;28;20387;-72
2022/03/24 14:49:52;;;;;;;18.80;12.90;;;;;;;;;;5074453;28;20032;-73
2022/03/24 14:52:18;;;;;;;18.52;11.88;;;;;;;;;;5074012;28;20033;-73
2022/03/24 14:54:44;;;;;;;17.33;12.25;;;;;;;;;;5071923;28;20032;-72
2022/03/24 14:57:10;;;;;;;16.52;10.80;;;;;;;;;;5054477;28;20127;-72
2022/03/24 14:59:36;;;;;;;14.15;11.27;;;;;;;;;;5074204;28;20029;-72
2022/03/24 15:02:02;;;;;;;14.88;10.68;;;;;;;;;;5053324;28;20033;-72
2022/03/24 15:04:29;;;;;;;16.05;11.05;;;;;;;;;;5055467;28;20044;-71
2022/03/24 15:06:55;;;;;;;19.13;11.60;;;;;;;;;;5075768;28;20063;-72
2022/03/24 15:09:21;;;;;;;20.58;11.38;;;;;;;;;;5075518;28;20028;-72
2022/03/24 15:11:47;;;;;;;18.58;10.85;;;;;;;;;;5075154;28;20025;-72
2022/03/24 15:16:58;;;;;;;17.95;10.63;;;;;;;;;;5074102;28;20155;-71
2022/03/24 15:19:24;;;;;;;17.65;11.13;;;;;;;;;;5076963;28;20119;-72
2022/03/24 15:21:50;;;;;;;17.15;10.38;;;;;;;;;;5076868;28;20082;-72
2022/03/24 15:24:16;;;;;;;23.02;11.55;;;;;;;;;;5083389;28;20032;-73
2022/03/24 15:26:42;;;;;;;17.92;10.30;;;;;;;;;;5074486;28;20036;-73
2022/03/24 15:29:10;;;;;;;15.30;10.88;;;;;;;;;;5057233;28;20039;-74
2022/03/24 15:31:36;;;;;;;15.05;10.25;;;;;;;;;;5074774;28;20048;-74
2022/03/24 15:34:04;;;;;;;16.85;10.27;;;;;;;;;;5057350;28;20028;-74
2022/03/24 15:36:30;;;;;;;16.13;10.55;;;;;;;;;;5075589;28;20021;-73
2022/03/24 15:38:56;;;;;;;15.00;10.07;;;;;;;;;;5075369;28;20396;-72
2022/03/24 15:41:22;;;;;;;19.58;10.07;;;;;;;;;;5074496;28;20024;-74
2022/03/24 15:43:51;;;;;;;17.00;10.10;;;;;;;;;;5074491;28;20036;-73
2022/03/24 15:46:17;;;;;;;14.15;10.50;;;;;;;;;;5074171;28;20150;-72
2022/03/24 15:48:43;;;;;;;18.13;10.50;;;;;;;;;;5073930;28;20115;-74
2022/03/24 15:51:09;;;;;;;18.40;9.60;;;;;;;;;;5057813;28;20032;-73
2022/03/24 15:53:36;;;;;;;12.82;9.32;;;;;;;;;;5077962;28;20056;-73
2022/03/24 15:56:03;;;;;;;17.23;10.43;;;;;;;;;;5077188;28;20468;-72
2022/03/24 15:58:30;;;;;;;13.90;10.02;;;;;;;;;;5065769;28;20028;-73
2022/03/24 16:00:56;;;;;;;14.18;9.40;;;;;;;;;;5074823;28;20107;-73
2022/03/24 16:03:22;;;;;;;15.02;9.80;;;;;;;;;;5068655;28;20439;-76
2022/03/24 16:05:48;;;;;;;12.93;9.52;;;;;;;;;;5062665;28;20629;-74
2022/03/24 16:08:14;;;;;;;13.95;9.30;;;;;;;;;;5057055;28;20060;-74
2022/03/24 16:10:40;;;;;;;14.65;9.68;;;;;;;;;;5074963;28;20131;-73
2022/03/24 16:13:06;;;;;;;15.88;10.02;;;;;;;;;;5076650;28;20120;-75
2022/03/24 16:15:32;;;;;;;15.10;10.50;;;;;;;;;;5075417;28;20031;-76
2022/03/24 16:17:58;;;;;;;18.52;10.50;;;;;;;;;;5075264;28;20051;-74
2022/03/24 16:20:24;;;;;;;16.67;10.40;;;;;;;;;;5075187;28;20031;-76
2022/03/24 16:22:51;;;;;;;15.07;10.52;;;;;;;;;;5056754;28;20111;-73
2022/03/24 16:25:17;;;;;;;16.83;10.10;;;;;;;;;;5076995;28;20468;-76
2022/03/24 16:27:43;;;;;;;15.07;10.43;;;;;;;;;;5074696;28;20066;-73
2022/03/24 16:30:09;;;;;;;14.75;10.10;;;;;;;;;;5056895;28;20059;-74
2022/03/24 16:32:35;;;;;;;12.75;10.15;;;;;;;;;;5053507;28;20039;-75
2022/03/24 16:35:01;;;;;;;19.38;10.63;;;;;;;;;;5067299;28;20095;-73
2022/03/24 16:37:27;;;;;;;20.98;10.82;;;;;;;;;;5074046;28;20060;-74
2022/03/24 16:39:54;;;;;;;17.70;10.50;;;;;;;;;;5074867;28;20066;-77
2022/03/24 16:42:20;;;;;;;21.25;10.65;;;;;;;;;;5074246;28;20024;-73
2022/03/24 16:44:47;;;;;;;18.73;11.13;;;;;;;;;;5074136;28;20047;-75
2022/03/24 16:47:14;;;;;;;15.65;11.02;;;;;;;;;;5074403;28;20103;-72
2022/03/24 16:49:40;;;;;;;19.05;11.18;;;;;;;;;;5073324;28;20366;-77
2022/03/24 16:52:06;;;;;;;19.00;11.07;;;;;;;;;;5073528;28;20464;-74
2022/03/24 16:54:32;;;;;;;21.95;12.07;;;;;;;;;;5074134;28;20055;-74
2022/03/24 16:56:59;;;;;;;20.13;11.82;;;;;;;;;;5058255;28;20460;-74
2022/03/24 16:59:25;;;;;;;20.05;11.73;;;;;;;;;;5056379;28;20032;-71
2022/03/24 17:01:51;;;;;;;17.17;10.63;;;;;;;;;;5074396;28;20024;-73
2022/03/24 17:04:17;;;;;;;18.20;11.60;;;;;;;;;;5055515;28;20404;-74